WETTERDATEN

GESTERN
Time Temp. Taup. r.Fe. Windrich Windstärke Windböe Druck 1h Prec. 24h Prec.
00:04 5.5 1.4 75 270 0.3 1.1 1021.4 0.0000 0.0000
00:14 5.5 1.4 75 270 0.3 1.4 1021.3 0.0000 0.0000
00:25 5.4 1.3 75 302 0.3 1.1 1021.4 0.0000 0.0000
00:35 5.4 1.3 75 270 0.3 1.4 1021.3 0.0000 0.0000
00:44 5.4 1.3 75 270 0.3 1.1 1021.3 0.0000 0.0000
00:55 5.4 1.3 75 270 0.8 1.4 1021.4 0.0000 0.0000
01:05 5.4 1.3 75 270 0.3 1.1 1021.4 0.0000 0.0000
01:15 5.4 1.3 75 270 0.3 0.8 1021.5 0.0000 0.0000
01:25 5.4 1.3 75 270 0.3 1.1 1021.4 0.0000 0.0000
01:35 5.2 1.1 75 270 0.3 1.1 1021.5 0.0000 0.0000
01:45 5.1 1 75 270 0.3 1.1 1021.5 0.0000 0.0000
01:55 4.9 0.8 75 270 0.3 1.1 1021.5 0.0000 0.0000
02:05 4.9 0.8 75 270 0.3 1.1 1021.5 0.0000 0.0000
02:15 4.9 0.8 75 270 0.3 0.8 1021.5 0.0000 0.0000
02:25 4.9 0.8 75 270 0.3 1.4 1021.5 0.0000 0.0000
02:35 4.9 0.8 75 270 0.3 1.1 1021.4 0.0000 0.0000
02:46 4.9 0.8 75 270 0.3 1.1 1021.3 0.0000 0.0000
02:56 4.9 0.8 75 270 0.3 1.1 1021.4 0.0000 0.0000
03:05 4.9 0.8 75 270 0.3 1.1 1021.3 0.0000 0.0000
03:16 4.8 0.8 75 270 0.3 1.1 1021.3 0.0000 0.0000
03:26 4.7 0.7 75 270 0.3 1.4 1021.2 0.0000 0.0000
03:36 4.6 0.6 75 270 0.3 0.8 1021.4 0.0000 0.0000
03:46 4.5 0.5 75 315 0.3 0.8 1021.5 0.0000 0.0000
03:56 4.4 0.4 75 270 0.3 1.1 1021.4 0.0000 0.0000
04:06 4.3 0.3 75 270 0.3 0.8 1021.3 0.0000 0.0000
04:16 4.2 0.2 75 270 0.3 0.8 1021.1 0.0000 0.0000
04:26 4 0 75 270 0.3 0.8 1021.1 0.0000 0.0000
04:37 3.9 -0.1 75 270 0.3 0.8 1020.9 0.0000 0.0000
04:46 3.7 -0.3 75 270 0.3 0.8 1021 0.0000 0.0000
04:56 3.6 -0.4 75 270 0.3 1.1 1020.8 0.0000 0.0000
05:07 3.5 -0.4 75 315 0.3 0.8 1020.9 0.0000 0.0000
05:17 3.4 -0.4 76 270 0.3 0.8 1020.8 0.0000 0.0000
05:26 3.4 -0.4 76 270 0.3 0.8 1020.6 0.0000 0.0000
05:37 3.5 -0.3 76 270 0.3 0.8 1020.6 0.0000 0.0000
05:47 3.5 -0.1 77 270 0.3 1.1 1020.7 0.0000 0.0000
05:57 3.6 0 77 270 0.3 0.8 1020.6 0.0000 0.0000
06:07 3.6 0 77 270 0.3 0.8 1020.5 0.0000 0.0000
06:17 3.7 0 77 270 0.3 1.1 1020.3 0.0000 0.0000
06:27 3.8 0.1 77 304 0.3 1.1 1020.2 0.0000 0.0000
06:37 3.9 0.4 78 270 0.3 1.1 1020.3 0.0000 0.0000
06:47 4.2 0.7 78 270 0.3 1.9 1020.2 0.0000 0.0000
06:58 4.4 0.9 78 270 0.3 1.4 1020.2 0.0000 0.0000
07:07 4.6 1.1 78 270 0.3 1.4 1020.1 0.0000 0.0000
07:17 4.7 1.2 78 270 0.3 1.9 1020 0.0000 0.0000
07:28 4.8 1.3 78 270 0.8 2.2 1020 0.0000 0.0000
07:38 4.9 1.2 77 221 0.8 1.9 1020 0.0000 0.0000
07:48 4.9 1.2 77 270 0.3 1.4 1020.2 0.0000 0.0000
07:57 5 1.3 77 237 0.3 1.4 1020.3 0.0000 0.0000
08:08 5 1.3 77 270 0.3 1.4 1020.3 0.0000 0.0000
08:18 5.1 1.4 77 270 0.3 1.9 1020.3 0.0000 0.0000
08:28 5.1 1.4 77 233 0.8 3.1 1020 0.0000 0.0000
08:38 5.2 1.3 76 244 0.8 1.4 1019.9 0.0000 0.0000
08:48 5.2 1.3 76 270 0.3 1.4 1019.8 0.0000 0.0000
08:58 5.3 1.4 76 270 0.3 1.4 1020 0.0000 0.0000
09:08 5.4 1.5 76 270 0.3 1.9 1019.8 0.0000 0.0000
09:19 5.4 1.5 76 270 0.8 3.1 1019.7 0.0000 0.0000
09:28 5.5 1.6 76 270 0.8 1.4 1019.5 0.0000 0.0000
09:38 5.6 1.5 75 270 0.8 1.4 1019.6 0.0000 0.0000
09:49 5.6 1.5 75 270 0.8 2.2 1019.6 0.0000 0.0000
09:59 5.7 1.8 76 255 0.8 4.2 1019.5 0.0000 0.0000
10:09 5.7 1.8 76 270 0.8 2.2 1019.3 0.0000 0.0000
10:18 5.8 1.9 76 281 0.8 1.9 1019 0.0000 0.0000
10:29 5.9 2.2 77 270 0.8 2.2 1019.1 0.0000 0.0000
10:39 6 2.3 77 236 0.8 2.2 1019 0.0000 0.0000
10:49 6.1 2.4 77 242 0.8 2.2 1019 0.0000 0.0000
10:59 6.2 2.5 77 244 0.8 2.5 1019 0.0000 0.0000
11:09 6.3 2.6 77 270 0.8 2.2 1018.9 0.0000 0.0000
11:19 6.4 2.7 77 270 0.3 1.4 1018.8 0.0000 0.0000
11:29 6.5 2.8 77 257 0.8 1.9 1018.6 0.0000 0.0000
11:40 6.7 3 77 270 0.8 2.2 1018.3 0.0000 0.0000
11:49 6.8 3.1 77 270 0.8 1.9 1018.3 0.0000 0.0000
12:00 7 3.2 77 248 0.8 5.6 1018.2 0.0000 0.0000
12:10 7.1 3.3 77 270 0.8 2.2 1018.2 0.0000 0.0000
12:20 7.2 3.4 77 259 0.8 1.4 1018.1 0.0000 0.0000
12:30 7.2 3.4 77 270 0.8 1.9 1018 0.0000 0.0000
12:40 7.2 3.4 77 248 0.8 2.5 1017.9 0.0000 0.0000
12:51 7.3 3.5 77 241 0.8 1.9 1018 0.0000 0.0000
13:01 7.3 3.5 77 258 0.8 2.5 1017.5 0.0000 0.0000
13:10 7.3 3.5 77 251 0.8 2.2 1017.7 0.0000 0.0000
13:20 7.3 3.5 77 284 0.8 1.4 1017.8 0.0000 0.0000
13:31 7.3 3.5 77 270 0.8 2.5 1017.8 0.0000 0.0000
13:41 7.3 3.5 77 259 0.8 2.2 1017.5 0.0000 0.0000
13:51 7.3 3.5 77 240 0.8 4.2 1017.4 0.0000 0.0000
14:01 7.2 3.4 77 251 0.8 2.5 1017.3 0.0000 0.0000
14:11 7.3 3.5 77 270 0.8 1.9 1017.2 0.0000 0.0000
14:21 7.3 3.5 77 250 0.8 2.2 1017.4 0.0000 0.0000
14:31 7.3 3.7 78 270 0.8 2.5 1017.3 0.0000 0.0000
14:42 7.2 3.6 78 282 0.8 2.2 1017.3 0.0000 0.0000
14:51 7.2 3.6 78 270 0.8 1.9 1017.3 0.0000 0.0000
15:01 7.2 3.8 79 270 0.8 2.2 1017.3 0.0000 0.0000
15:11 7.2 3.8 79 270 0.8 2.2 1017.3 0.0000 0.0000
15:22 7.2 4 80 281 0.8 2.2 1017 0.0000 0.0000
15:31 7.2 4 80 231 1.1 2.2 1017 0.1000 0.1000
15:41 7.2 4 80 270 0.8 3.6 1017.1 0.1000 0.1000
15:52 7.2 4 80 270 0.8 2.5 1017.2 0.1000 0.1000
16:02 7.2 4 80 248 0.8 2.2 1017.1 0.1000 0.1000
16:12 7.3 4.1 80 258 0.8 2.5 1017.3 0.1000 0.1000
16:22 7.3 4.1 80 270 0.8 1.9 1017.5 0.1000 0.1000
16:32 7.3 4.1 80 280 0.8 1.9 1017.6 0.0000 0.1000
16:42 7.3 4.3 81 284 0.8 2.2 1017.5 0.0000 0.1000
16:52 7.3 4.3 81 270 0.8 1.9 1017.4 0.0000 0.1000
17:03 7.4 4.4 81 259 0.8 2.5 1017.5 0.0000 0.1000
17:12 7.4 4.4 81 270 0.8 1.4 1017.7 0.0000 0.1000
17:22 7.5 4.5 81 285 0.8 2.2 1017.7 0.0000 0.1000
17:32 7.5 4.5 81 286 0.8 1.4 1017.7 0.0000 0.1000
17:43 7.6 4.6 81 292 0.8 1.9 1017.9 0.0000 0.1000
17:53 7.6 4.6 81 270 0.8 2.2 1018 0.0000 0.1000
18:02 7.7 4.7 81 270 0.8 1.4 1017.8 0.0000 0.1000
18:13 7.7 4.7 81 270 0.3 1.4 1018.1 0.0000 0.1000
18:23 7.6 4.4 80 270 0.8 1.4 1018 0.0000 0.1000
18:33 7.6 4.4 80 256 0.8 1.9 1017.9 0.0000 0.1000
18:43 7.6 4.4 80 296 0.8 1.4 1017.7 0.0000 0.1000
18:53 7.5 4.3 80 270 0.8 2.2 1017.8 0.0000 0.1000
19:03 7.5 4.3 80 299 0.8 1.4 1017.7 0.0000 0.1000
19:13 7.4 4.2 80 270 0.3 1.1 1017.7 0.0000 0.1000
19:24 7.3 4.1 80 270 0.3 1.1 1017.5 0.0000 0.1000
19:33 7.3 4.1 80 270 0.3 1.4 1017.6 0.0000 0.1000
19:43 7.2 4 80 270 0.3 1.4 1017.7 0.0000 0.1000
19:53 7.2 4 80 280 0.8 1.4 1017.7 0.0000 0.1000
20:04 7.2 4 80 270 0.8 1.1 1017.8 0.0000 0.1000
20:14 7.2 4 80 270 0.3 1.1 1017.9 0.0000 0.1000
20:23 7.2 4 80 270 0.3 1.4 1017.9 0.0000 0.1000
20:42 7.2 4 80 293 1.1 4.4 1018.1 0.9010 1.0000
20:52 7 3.6 79 291 0.8 3.3 1018.1 1.0010 1.1000
21:02 6.8 3.4 79 293 0.8 1.9 1017.9 1.1010 1.2000
21:12 6.8 3.2 78 270 0.8 1.4 1017.9 1.1010 1.2000
21:22 6.8 3.2 78 270 0.3 1.9 1018 1.0010 1.2000
21:33 6.8 3.2 78 282 0.8 1.4 1017.9 0.2000 1.2000
21:43 6.7 3.1 78 270 0.3 1.4 1018 0.1000 1.2000
21:52 6.7 3.1 78 270 0.3 1.1 1017.9 0.0000 1.2000
22:02 6.7 3.1 78 270 0.3 1.4 1017.9 0.0000 1.2000
22:13 6.8 3.4 79 270 0.3 1.1 1017.8 0.0000 1.2000
22:23 6.9 3.5 79 270 0.8 1.4 1017.7 0.0000 1.2000
22:33 6.9 3.7 80 270 0.3 1.9 1017.7 0.0000 1.2000
22:43 7 3.8 80 259 0.8 2.5 1017.6 0.0000 1.2000
22:53 7 3.8 80 270 0.8 1.4 1017.6 0.0000 1.2000
23:03 7 3.8 80 270 0.3 1.9 1017.4 0.0000 1.2000
23:13 7.1 3.9 80 270 0.8 1.9 1017.4 0.0000 1.2000
23:24 7.1 3.9 80 259 0.8 1.9 1017.2 0.0000 1.2000
23:33 7.1 3.9 80 270 0.8 1.4 1017.2 0.0000 1.2000
23:43 7.1 3.9 80 270 0.3 1.9 1017.3 0.0000 1.2000
23:54 7 3.8 80 270 0.8 1.9 1017.2 0.0000

TAGESSTATISTIK

2023-01-31
TEMPERATUR
MITTEL
6.1
MAXIMUM
7.7
18:02
MINIMUM
3.4
05:17
LUFTDRUCK
MITTEL
1019.0
MAXIMUM
1021.5
01:15
MINIMUM
1017.0
15:22
TAUPUNKT
MITTEL
2.5
MAXIMUM
4.7
18:02
MINIMUM
-0.4
04:56
FEUCHTIGKEIT
MITTEL
78
MAXIMUM
81
16:42
MINIMUM
75
00:04
WINDSTÄRKE
MITTEL
0.6
MAXIMUM
1.1
15:31
WINDBÖE
MITTEL
1.7
MAXIMUM
5.6
12:00
WINDRICHTUNG
VORHERRSCHENDE
W
87.3%
N
0.0
NO
0.0
O
0.0
SO
0.0
S
0.0
SW
7.0
W
87.3
NW
5.6
NIEDERSCHLAG
REGEN STUNDE
1.1
REGEN TAG
1.2
TEMPERATUR (°C)
MINIMUM
3.4
MAXIMUM
7.7
MITTEL
6.1
LUFTDRUCK (hpa)
MINIMUM
1017.0
MAXIMUM
1021.5
MITTEL
1019.0
MESSGERÄT